Terminal Aerodrome Forecast
Issued by NWS Upton, NY

Current Version | Previous Version | Text Only | Print | Product List | Glossary On
Versions: 1 2 3 4 5 6 7 8 9 10 11 12 13 14 15 16 17 18 19 20 21 22 23 24 25
000 FTUS41 KOKX 231700 TAFBDR TAF KBDR 231727Z 2318/2418 22008KT P6SM SCT100 BKN250 FM232100 19006KT P6SM SCT100 BKN200 FM240000 15004KT P6SM SCT100 BKN200 FM240500 14005KT P6SM BKN010 FM240700 13010KT 2SM RA BR OVC005 WS020/16045KT FM241000 14016G23KT 1SM RA BR OVC004 WS020/17055KT FM241300 18016G25KT 2SM SHRA BR OVC004 WS020/21045KT FM241600 20014G22KT 3SM BR BKN005 BKN010=

USA.gov is the U.S. government's official web portal to all federal, state and local government web resources and services.